Daisy Mae — WDJ6432 — position and weather

sailwx.info

Track history (hours):
 
Tides and Currents Weather Stations Pressure Air Temp Water Temp Dewpoint Dewpoint Depression Visibility Wind Speed Wind Dir Waves Ship Positions

Daisy Mae

Owner: Coeymans Marine Towing, LLC, Coeymans, NY. More information available from US FCC via Universal Licensing System and Coast Guard Vessel Documentation Center.

Last reported at 2017-Dec-09 15:22 UTC. Time now 2017-Dec-14 12:58 UTC.
Position N 27°02' W 080°03'.

Length 43 m.

Type: Tug. MMSI: 367797720.

Date/timePositionNaut miles runAvg speedWind from/ knotsBaromVisibWave heightAir tempDewpointWater temp
2017-Dec-09 15:22N 27°02' W 080°03'3 7.7
2017-Dec-09 15:00N 26°59' W 080°02'4 7.4
2017-Dec-09 14:30N 26°55' W 080°02'4 7.6
2017-Dec-09 14:00N 26°52' W 080°01'4 8.5
2017-Dec-09 13:30N 26°47' W 079°60'5 9.4
2017-Dec-09 13:00N 26°43' W 079°60'5 9.5
2017-Dec-09 12:30N 26°38' W 080°00'5 9.4
2017-Dec-09 12:00N 26°33' W 080°00'5 9.1
2017-Dec-09 11:30N 26°29' W 080°01'4 8.8
2017-Dec-09 11:00N 26°24' W 080°01'4 8.7
2017-Dec-09 10:30N 26°20' W 080°02'4 8.4
2017-Dec-09 10:00N 26°16' W 080°02'4 7.6
2017-Dec-09 09:30N 26°12' W 080°03'4 7.2
2017-Dec-09 09:00N 26°08' W 080°03'3 6.1
2017-Dec-09 08:30N 26°06' W 080°05'2 4.2
2017-Dec-09 08:00N 26°05' W 080°07'0 0.0
2017-Dec-09 07:30N 26°05' W 080°07'0 0.0
2017-Dec-09 07:00N 26°05' W 080°07'0 0.0
2017-Dec-09 06:30N 26°05' W 080°07'0 0.0
2017-Dec-09 06:00N 26°05' W 080°07'0 0.0
2017-Dec-09 05:30N 26°05' W 080°07'0 0.0
2017-Dec-09 05:00N 26°05' W 080°07'0 0.0
2017-Dec-09 04:29N 26°05' W 080°07'0 0.0
2017-Dec-09 04:00N 26°05' W 080°07'0 0.0
2017-Dec-09 03:30N 26°05' W 080°07'0 0.0
2017-Dec-09 03:00N 26°05' W 080°07'0 0.0
2017-Dec-09 02:30N 26°05' W 080°07'0 0.0
2017-Dec-09 02:00N 26°05' W 080°07'0 0.0
2017-Dec-09 01:30N 26°05' W 080°07'0 0.0
2017-Dec-09 01:00N 26°05' W 080°07'0 0.0
2017-Dec-09 00:30N 26°05' W 080°07'0 0.0
2017-Dec-08 21:34N 26°05' W 080°07'0 0.0
2017-Dec-08 21:30N 26°05' W 080°07'0 0.0
2017-Dec-08 21:00N 26°05' W 080°07'0 0.0
2017-Dec-08 20:30N 26°05' W 080°07'0 0.0
2017-Dec-08 20:00N 26°05' W 080°07'0 0.0
2017-Dec-08 19:30N 26°05' W 080°07'0 0.0
2017-Dec-08 14:32N 26°05' W 080°07'0 0.0
2017-Dec-08 14:30N 26°05' W 080°07'0 0.0
2017-Dec-08 14:00N 26°05' W 080°07'0 0.0
2017-Dec-07 01:17N 26°06' W 080°07'0 0.0
2017-Dec-07 01:00N 26°06' W 080°07'0 0.0
2017-Dec-07 00:30N 26°06' W 080°07'0 0.0
2017-Dec-07 00:00N 26°06' W 080°07'0 0.0
2017-Dec-06 23:30N 26°06' W 080°07'0 0.0
2017-Dec-06 23:00N 26°06' W 080°07'0 0.0
2017-Dec-06 22:30N 26°06' W 080°07'0 0.0
2017-Dec-06 22:00N 26°06' W 080°07'0 0.0
2017-Dec-06 21:30N 26°06' W 080°07'0 0.0
2017-Dec-06 21:00N 26°06' W 080°07'  
2017-Dec-04 10:30N 26°05' W 080°07'0 0.0
2017-Dec-04 10:00N 26°05' W 080°07'0 0.0
2017-Dec-04 09:30N 26°05' W 080°07'0 0.0
2017-Dec-04 09:00N 26°05' W 080°07'0 0.0
2017-Dec-04 08:30N 26°05' W 080°07'0 0.0
2017-Dec-04 08:00N 26°05' W 080°07'0 0.0
2017-Dec-04 07:30N 26°05' W 080°07'0 0.0
2017-Dec-04 07:00N 26°05' W 080°07'0 0.0
2017-Dec-04 06:30N 26°05' W 080°07'0 0.0
2017-Dec-04 06:00N 26°05' W 080°07'0 0.0
2017-Dec-04 05:30N 26°05' W 080°07'0 0.0
2017-Dec-04 05:00N 26°05' W 080°07'0 0.0
2017-Dec-04 04:30N 26°05' W 080°07'0 0.0
2017-Dec-04 04:00N 26°05' W 080°07'0 0.0
2017-Dec-04 03:30N 26°05' W 080°07'0 0.0
2017-Dec-04 03:00N 26°05' W 080°07'0 0.0
2017-Dec-04 02:30N 26°05' W 080°07'0 0.0
2017-Dec-04 02:00N 26°05' W 080°07'0 0.0
2017-Dec-04 01:30N 26°05' W 080°07'0 0.0
2017-Dec-04 01:00N 26°05' W 080°07'0 0.0
2017-Dec-04 00:30N 26°05' W 080°07'0 0.0
2017-Dec-04 00:00N 26°05' W 080°07'0 0.0
2017-Dec-03 23:30N 26°05' W 080°07'0 0.0
2017-Dec-03 23:00N 26°05' W 080°07'0 0.0
2017-Dec-03 22:30N 26°05' W 080°07'0 0.0
2017-Dec-03 22:00N 26°05' W 080°07'0 0.0
2017-Dec-03 21:30N 26°05' W 080°07'0 0.0
2017-Dec-03 21:00N 26°05' W 080°07'0 0.0
2017-Dec-03 20:30N 26°05' W 080°07'0 0.0
2017-Dec-03 20:00N 26°05' W 080°07'0 0.0
2017-Dec-03 19:30N 26°05' W 080°07'0 0.0
2017-Dec-03 19:00N 26°05' W 080°07'0 0.0
2017-Dec-03 18:30N 26°05' W 080°07'0 0.0
2017-Dec-03 18:00N 26°05' W 080°07'0 0.0
2017-Dec-03 17:30N 26°05' W 080°07'0 0.0
2017-Dec-03 17:00N 26°05' W 080°07'0 0.0
2017-Dec-03 16:30N 26°05' W 080°07'0 0.0
2017-Dec-03 16:00N 26°05' W 080°07'0 0.0
2017-Dec-03 15:30N 26°05' W 080°07'0 0.0
2017-Dec-03 15:00N 26°05' W 080°07'0 0.0
2017-Dec-03 14:30N 26°05' W 080°07'0 0.0
2017-Dec-03 14:00N 26°05' W 080°07'0 0.0
2017-Dec-03 13:30N 26°05' W 080°07'0 0.0
2017-Dec-03 13:00N 26°05' W 080°07'0 0.0
2017-Dec-03 12:30N 26°05' W 080°07'0 0.0
2017-Dec-03 12:00N 26°05' W 080°07'0 0.0
2017-Dec-03 11:30N 26°05' W 080°07'0 0.0
2017-Dec-03 11:00N 26°05' W 080°07'0 0.0
2017-Dec-03 10:30N 26°05' W 080°07'0 0.0
2017-Dec-03 10:00N 26°05' W 080°07'0 0.0
2017-Dec-03 09:29N 26°05' W 080°07'0 0.0
2017-Dec-03 09:00N 26°05' W 080°07'0 0.0
2017-Dec-03 08:30N 26°05' W 080°07'0 0.0
2017-Dec-03 08:00N 26°05' W 080°07'0 0.0
2017-Dec-03 07:28N 26°05' W 080°07'0 0.0
2017-Dec-03 07:00N 26°05' W 080°07'0 0.0
2017-Dec-03 06:30N 26°05' W 080°07'0 0.0
2017-Dec-03 06:00N 26°05' W 080°07'0 0.0
2017-Dec-03 05:30N 26°05' W 080°07'0 0.0
2017-Dec-03 05:00N 26°05' W 080°07'0 0.0
2017-Dec-03 04:30N 26°05' W 080°07'0 0.0
2017-Dec-03 04:00N 26°05' W 080°07'0 0.0
2017-Dec-03 03:30N 26°05' W 080°07'0 0.0
2017-Dec-03 03:00N 26°05' W 080°07'0 0.0
2017-Dec-03 02:30N 26°05' W 080°07'0 0.0
2017-Dec-03 02:00N 26°05' W 080°07'0 0.0
2017-Dec-03 01:30N 26°05' W 080°07'0 0.0
2017-Dec-03 01:00N 26°05' W 080°07'0 0.0
2017-Dec-03 00:30N 26°05' W 080°07'0 0.0
2017-Dec-02 23:59N 26°05' W 080°07'0 0.0
2017-Dec-02 23:30N 26°05' W 080°07'0 0.0
2017-Dec-02 23:00N 26°05' W 080°07'0 0.0
2017-Dec-02 22:30N 26°05' W 080°07'0 0.0
2017-Dec-02 22:00N 26°05' W 080°07'0 0.0
2017-Dec-02 21:30N 26°05' W 080°07'0 0.0
2017-Dec-02 20:58N 26°05' W 080°07'0 0.0
2017-Dec-02 20:30N 26°05' W 080°07'0 0.0
2017-Dec-02 20:00N 26°05' W 080°07'0 0.0
2017-Dec-02 19:30N 26°05' W 080°07'0 0.0
2017-Dec-02 19:00N 26°05' W 080°07'0 0.0
2017-Dec-02 18:30N 26°05' W 080°07'0 0.0
2017-Dec-02 18:00N 26°05' W 080°07'0 0.0
2017-Dec-02 17:30N 26°05' W 080°07'0 0.0
2017-Dec-02 17:00N 26°05' W 080°07'0 0.0
2017-Dec-02 16:30N 26°05' W 080°07'0 0.0
2017-Dec-02 16:00N 26°05' W 080°07'0 0.0
2017-Dec-02 15:30N 26°05' W 080°07'0 0.0
2017-Dec-02 15:00N 26°05' W 080°07'0 0.0
2017-Dec-02 14:30N 26°05' W 080°07'0 0.0
2017-Dec-02 14:00N 26°05' W 080°07'0 0.0
2017-Dec-02 13:30N 26°05' W 080°07'0 0.0
2017-Dec-02 13:00N 26°05' W 080°07'0 0.0
2017-Dec-02 12:30N 26°05' W 080°07'0 0.0
2017-Dec-02 12:00N 26°05' W 080°07'0 0.0
2017-Dec-02 11:30N 26°05' W 080°07'0 0.0
2017-Dec-02 11:00N 26°05' W 080°07'0 0.0
2017-Dec-02 10:30N 26°05' W 080°07'0 0.0
2017-Dec-02 10:00N 26°05' W 080°07'0 0.0
2017-Dec-02 09:30N 26°05' W 080°07'0 0.0
2017-Dec-02 09:00N 26°05' W 080°07'0 0.0
2017-Dec-02 08:30N 26°05' W 080°07'0 0.0
2017-Dec-02 08:00N 26°05' W 080°07'0 0.0
2017-Dec-02 07:30N 26°05' W 080°07'0 0.0
2017-Dec-02 07:00N 26°05' W 080°07'0 0.0
2017-Dec-02 06:30N 26°05' W 080°07'0 0.0
2017-Dec-02 06:00N 26°05' W 080°07'0 0.0
2017-Dec-02 05:30N 26°05' W 080°07'0 0.0
2017-Dec-02 05:00N 26°05' W 080°07'0 0.0
2017-Dec-02 04:30N 26°05' W 080°07'0 0.0
2017-Dec-02 04:00N 26°05' W 080°07'0 0.0
2017-Dec-02 03:30N 26°05' W 080°07'0 0.0
2017-Dec-02 03:00N 26°05' W 080°07'0 0.0
2017-Dec-02 02:30N 26°05' W 080°07'0 0.0
2017-Dec-02 02:00N 26°05' W 080°07'0 0.0
2017-Dec-02 01:30N 26°05' W 080°07'0 0.0
2017-Dec-02 01:00N 26°05' W 080°07'0 0.0
2017-Dec-02 00:30N 26°05' W 080°07'0 0.0
2017-Dec-02 00:00N 26°05' W 080°07'0 0.0
2017-Dec-01 23:30N 26°05' W 080°07'0 0.0
2017-Dec-01 23:00N 26°05' W 080°07'0 0.0
2017-Dec-01 22:30N 26°05' W 080°07'0 0.0
2017-Dec-01 22:00N 26°05' W 080°07'0 0.0
2017-Dec-01 21:30N 26°05' W 080°07'0 0.0
2017-Dec-01 21:00N 26°05' W 080°07'0 0.0
2017-Dec-01 20:30N 26°05' W 080°07'0 0.0
2017-Dec-01 20:00N 26°05' W 080°07'0 0.0
2017-Dec-01 19:30N 26°05' W 080°07'0 0.0
2017-Dec-01 19:00N 26°05' W 080°07'0 0.0
2017-Dec-01 18:30N 26°05' W 080°07'0 0.0
2017-Dec-01 18:00N 26°05' W 080°07'0 0.0
2017-Dec-01 17:30N 26°05' W 080°07'0 0.0
2017-Dec-01 17:00N 26°05' W 080°07'0 0.0
2017-Dec-01 16:30N 26°05' W 080°07'0 0.0
2017-Dec-01 16:00N 26°05' W 080°07'0 0.0
2017-Dec-01 15:30N 26°05' W 080°07'0 0.0
2017-Dec-01 15:00N 26°05' W 080°07'0 0.0
2017-Dec-01 14:30N 26°05' W 080°07'0 0.0
2017-Dec-01 14:00N 26°05' W 080°07'0 0.0
2017-Dec-01 13:30N 26°05' W 080°07'0 0.0
2017-Dec-01 13:00N 26°05' W 080°07'0 0.1
2017-Dec-01 12:30N 26°05' W 080°07'0 0.0
2017-Dec-01 12:00N 26°05' W 080°07'0 0.0
2017-Dec-01 11:30N 26°05' W 080°07'0 0.0
2017-Dec-01 11:00N 26°05' W 080°07'0 0.0
2017-Dec-01 10:30N 26°05' W 080°07'0 0.0
2017-Dec-01 10:00N 26°05' W 080°07'0 0.0
2017-Dec-01 09:30N 26°05' W 080°07'0 0.0
2017-Dec-01 09:00N 26°05' W 080°07'0 0.0
2017-Dec-01 08:30N 26°05' W 080°07'0 0.0
2017-Dec-01 08:00N 26°05' W 080°07'0 0.0
2017-Dec-01 07:30N 26°05' W 080°07'0 0.0
2017-Dec-01 06:58N 26°05' W 080°07'0 0.0
2017-Dec-01 06:30N 26°05' W 080°07'0 0.0
2017-Dec-01 06:00N 26°05' W 080°07'0 0.0
2017-Dec-01 05:27N 26°05' W 080°07'0 0.0
2017-Dec-01 05:00N 26°05' W 080°07'0 0.0
2017-Dec-01 04:30N 26°05' W 080°07'0 0.0
2017-Dec-01 04:00N 26°05' W 080°07'0 0.0
2017-Dec-01 03:30N 26°05' W 080°07'0 0.0
2017-Dec-01 02:58N 26°05' W 080°07'0 0.0
2017-Dec-01 02:29N 26°05' W 080°07'0 0.0
2017-Dec-01 02:00N 26°05' W 080°07'0 0.0
2017-Dec-01 01:30N 26°05' W 080°07'0 0.0
2017-Dec-01 00:59N 26°05' W 080°07'0 0.0
2017-Dec-01 00:30N 26°05' W 080°07'0 0.0
2017-Dec-01 00:00N 26°05' W 080°07'0 0.0
2017-Nov-30 23:30N 26°05' W 080°07'0 0.0
2017-Nov-30 23:00N 26°05' W 080°07'0 0.0
2017-Nov-30 22:30N 26°05' W 080°07'0 0.0
2017-Nov-30 22:00N 26°05' W 080°07'0 0.0
2017-Nov-30 21:30N 26°05' W 080°07'0 0.0
2017-Nov-30 20:59N 26°05' W 080°07'0 0.0
2017-Nov-30 20:29N 26°05' W 080°07'0 0.0
2017-Nov-30 20:00N 26°05' W 080°07'0 0.0
2017-Nov-30 19:30N 26°05' W 080°07'0 0.0
2017-Nov-30 19:00N 26°05' W 080°07'0 0.0
2017-Nov-30 18:30N 26°05' W 080°07'0 0.0
2017-Nov-30 18:00N 26°05' W 080°07'0 0.0
2017-Nov-30 17:30N 26°05' W 080°07'0 0.0
2017-Nov-30 17:00N 26°05' W 080°07'0 0.0
2017-Nov-30 16:30N 26°05' W 080°07'0 0.0
2017-Nov-30 16:00N 26°05' W 080°07'0 0.0
2017-Nov-30 15:30N 26°05' W 080°07'0 0.0
2017-Nov-30 15:00N 26°05' W 080°07'0 0.0
2017-Nov-30 14:30N 26°05' W 080°07'0 0.0
2017-Nov-30 14:00N 26°05' W 080°07'0 0.0
2017-Nov-30 13:30N 26°05' W 080°07'0 0.0
2017-Nov-30 13:00N 26°05' W 080°07'0 0.0
2017-Nov-30 12:30N 26°05' W 080°07'0 0.0
2017-Nov-30 12:00N 26°05' W 080°07'0 0.0
2017-Nov-30 11:30N 26°05' W 080°07'0 0.0
2017-Nov-30 11:00N 26°05' W 080°07'0 0.0
2017-Nov-30 10:30N 26°05' W 080°07'0 0.0
2017-Nov-30 10:00N 26°05' W 080°07'0 0.0
2017-Nov-30 09:30N 26°05' W 080°07'0 0.0
2017-Nov-30 09:00N 26°05' W 080°07'0 0.0
2017-Nov-30 08:30N 26°05' W 080°07'0 0.0
2017-Nov-30 08:00N 26°05' W 080°07'0 0.0
2017-Nov-30 07:30N 26°05' W 080°07'0 0.0
2017-Nov-30 07:00N 26°05' W 080°07'0 0.0
2017-Nov-30 06:30N 26°05' W 080°07'0 0.0
2017-Nov-30 06:00N 26°05' W 080°07'0 0.0
2017-Nov-30 05:30N 26°05' W 080°07'0 0.0
2017-Nov-30 05:00N 26°05' W 080°07'0 0.0
2017-Nov-30 04:30N 26°05' W 080°07'0 0.0
2017-Nov-30 04:00N 26°05' W 080°07'0 0.0
2017-Nov-30 03:30N 26°05' W 080°07'0 0.8
2017-Nov-30 03:01N 26°06' W 080°07'2 3.6
2017-Nov-30 02:30N 26°05' W 080°05'1 3.0
2017-Nov-30 02:00N 26°04' W 080°04'2 4.0
2017-Nov-30 01:30N 26°06' W 080°04'3 6.0
2017-Nov-30 01:00N 26°09' W 080°03'4 7.6
2017-Nov-30 00:30N 26°12' W 080°02'4 7.5
2017-Nov-30 00:00N 26°16' W 080°02'4 7.4
2017-Nov-29 23:30N 26°20' W 080°02'4 7.3
2017-Nov-29 23:00N 26°23' W 080°02'4 7.2
2017-Nov-29 22:30N 26°27' W 080°01'4 7.2
2017-Nov-29 22:00N 26°31' W 080°01'4 7.2
2017-Nov-29 21:30N 26°34' W 080°01'3 6.9
2017-Nov-29 21:00N 26°38' W 080°01'3 6.8
2017-Nov-29 20:30N 26°41' W 080°00'3 6.3
2017-Nov-29 20:01N 26°44' W 080°00'4 8.0
2017-Nov-29 19:30N 26°40' W 080°00'4 8.7
2017-Nov-29 19:00N 26°36' W 080°01'4 8.6
2017-Nov-29 18:30N 26°32' W 080°01'4 8.5
2017-Nov-29 18:00N 26°27' W 080°02'4 8.5
2017-Nov-29 17:30N 26°23' W 080°02'4 8.4
2017-Nov-29 16:59N 26°19' W 080°03'4 8.6
2017-Nov-29 16:30N 26°15' W 080°03'5 9.1
2017-Nov-29 15:59N 26°10' W 080°04'4 9.0
2017-Nov-29 15:30N 26°06' W 080°04'  
Track history (hours):
 
Tides and Currents Weather Stations Pressure Air Temp Water Temp Dewpoint Dewpoint Depression Visibility Wind Speed Wind Dir Waves Ship Positions

Daisy Mae

Owner: Coeymans Marine Towing, LLC, Coeymans, NY. More information available from US FCC via Universal Licensing System and Coast Guard Vessel Documentation Center.

Last reported at 2017-Dec-09 15:22 UTC. Time now 2017-Dec-14 12:58 UTC.
Position N 27°02' W 080°03'.

Length 43 m.

Type: Tug. MMSI: 367797720.

Date/timePositionNaut miles runAvg speedWind from/ knotsBaromVisibWave heightAir tempDewpointWater temp
2017-Dec-09 15:22N 27°02' W 080°03'3 7.7
2017-Dec-09 15:00N 26°59' W 080°02'4 7.4
2017-Dec-09 14:30N 26°55' W 080°02'4 7.6
2017-Dec-09 14:00N 26°52' W 080°01'4 8.5
2017-Dec-09 13:30N 26°47' W 079°60'5 9.4
2017-Dec-09 13:00N 26°43' W 079°60'5 9.5
2017-Dec-09 12:30N 26°38' W 080°00'5 9.4
2017-Dec-09 12:00N 26°33' W 080°00'5 9.1
2017-Dec-09 11:30N 26°29' W 080°01'4 8.8
2017-Dec-09 11:00N 26°24' W 080°01'4 8.7
2017-Dec-09 10:30N 26°20' W 080°02'4 8.4
2017-Dec-09 10:00N 26°16' W 080°02'4 7.6
2017-Dec-09 09:30N 26°12' W 080°03'4 7.2
2017-Dec-09 09:00N 26°08' W 080°03'3 6.1
2017-Dec-09 08:30N 26°06' W 080°05'2 4.2
2017-Dec-09 08:00N 26°05' W 080°07'0 0.0
2017-Dec-09 07:30N 26°05' W 080°07'0 0.0
2017-Dec-09 07:00N 26°05' W 080°07'0 0.0
2017-Dec-09 06:30N 26°05' W 080°07'0 0.0
2017-Dec-09 06:00N 26°05' W 080°07'0 0.0
2017-Dec-09 05:30N 26°05' W 080°07'0 0.0
2017-Dec-09 05:00N 26°05' W 080°07'0 0.0
2017-Dec-09 04:29N 26°05' W 080°07'0 0.0
2017-Dec-09 04:00N 26°05' W 080°07'0 0.0
2017-Dec-09 03:30N 26°05' W 080°07'0 0.0
2017-Dec-09 03:00N 26°05' W 080°07'0 0.0
2017-Dec-09 02:30N 26°05' W 080°07'0 0.0
2017-Dec-09 02:00N 26°05' W 080°07'0 0.0
2017-Dec-09 01:30N 26°05' W 080°07'0 0.0
2017-Dec-09 01:00N 26°05' W 080°07'0 0.0
2017-Dec-09 00:30N 26°05' W 080°07'0 0.0
2017-Dec-08 21:34N 26°05' W 080°07'0 0.0
2017-Dec-08 21:30N 26°05' W 080°07'0 0.0
2017-Dec-08 21:00N 26°05' W 080°07'0 0.0
2017-Dec-08 20:30N 26°05' W 080°07'0 0.0
2017-Dec-08 20:00N 26°05' W 080°07'0 0.0
2017-Dec-08 19:30N 26°05' W 080°07'0 0.0
2017-Dec-08 14:32N 26°05' W 080°07'0 0.0
2017-Dec-08 14:30N 26°05' W 080°07'0 0.0
2017-Dec-08 14:00N 26°05' W 080°07'0 0.0
2017-Dec-07 01:17N 26°06' W 080°07'0 0.0
2017-Dec-07 01:00N 26°06' W 080°07'0 0.0
2017-Dec-07 00:30N 26°06' W 080°07'0 0.0
2017-Dec-07 00:00N 26°06' W 080°07'0 0.0
2017-Dec-06 23:30N 26°06' W 080°07'0 0.0
2017-Dec-06 23:00N 26°06' W 080°07'0 0.0
2017-Dec-06 22:30N 26°06' W 080°07'0 0.0
2017-Dec-06 22:00N 26°06' W 080°07'0 0.0
2017-Dec-06 21:30N 26°06' W 080°07'0 0.0
2017-Dec-06 21:00N 26°06' W 080°07'  
2017-Dec-04 10:30N 26°05' W 080°07'0 0.0
2017-Dec-04 10:00N 26°05' W 080°07'0 0.0
2017-Dec-04 09:30N 26°05' W 080°07'0 0.0
2017-Dec-04 09:00N 26°05' W 080°07'0 0.0
2017-Dec-04 08:30N 26°05' W 080°07'0 0.0
2017-Dec-04 08:00N 26°05' W 080°07'0 0.0
2017-Dec-04 07:30N 26°05' W 080°07'0 0.0
2017-Dec-04 07:00N 26°05' W 080°07'0 0.0
2017-Dec-04 06:30N 26°05' W 080°07'0 0.0
2017-Dec-04 06:00N 26°05' W 080°07'0 0.0
2017-Dec-04 05:30N 26°05' W 080°07'0 0.0
2017-Dec-04 05:00N 26°05' W 080°07'0 0.0
2017-Dec-04 04:30N 26°05' W 080°07'0 0.0
2017-Dec-04 04:00N 26°05' W 080°07'0 0.0
2017-Dec-04 03:30N 26°05' W 080°07'0 0.0
2017-Dec-04 03:00N 26°05' W 080°07'0 0.0
2017-Dec-04 02:30N 26°05' W 080°07'0 0.0
2017-Dec-04 02:00N 26°05' W 080°07'0 0.0
2017-Dec-04 01:30N 26°05' W 080°07'0 0.0
2017-Dec-04 01:00N 26°05' W 080°07'0 0.0
2017-Dec-04 00:30N 26°05' W 080°07'0 0.0
2017-Dec-04 00:00N 26°05' W 080°07'0 0.0
2017-Dec-03 23:30N 26°05' W 080°07'0 0.0
2017-Dec-03 23:00N 26°05' W 080°07'0 0.0
2017-Dec-03 22:30N 26°05' W 080°07'0 0.0
2017-Dec-03 22:00N 26°05' W 080°07'0 0.0
2017-Dec-03 21:30N 26°05' W 080°07'0 0.0
2017-Dec-03 21:00N 26°05' W 080°07'0 0.0
2017-Dec-03 20:30N 26°05' W 080°07'0 0.0
2017-Dec-03 20:00N 26°05' W 080°07'0 0.0
2017-Dec-03 19:30N 26°05' W 080°07'0 0.0
2017-Dec-03 19:00N 26°05' W 080°07'0 0.0
2017-Dec-03 18:30N 26°05' W 080°07'0 0.0
2017-Dec-03 18:00N 26°05' W 080°07'0 0.0
2017-Dec-03 17:30N 26°05' W 080°07'0 0.0
2017-Dec-03 17:00N 26°05' W 080°07'0 0.0
2017-Dec-03 16:30N 26°05' W 080°07'0 0.0
2017-Dec-03 16:00N 26°05' W 080°07'0 0.0
2017-Dec-03 15:30N 26°05' W 080°07'0 0.0
2017-Dec-03 15:00N 26°05' W 080°07'0 0.0
2017-Dec-03 14:30N 26°05' W 080°07'0 0.0
2017-Dec-03 14:00N 26°05' W 080°07'0 0.0
2017-Dec-03 13:30N 26°05' W 080°07'0 0.0
2017-Dec-03 13:00N 26°05' W 080°07'0 0.0
2017-Dec-03 12:30N 26°05' W 080°07'0 0.0
2017-Dec-03 12:00N 26°05' W 080°07'0 0.0
2017-Dec-03 11:30N 26°05' W 080°07'0 0.0
2017-Dec-03 11:00N 26°05' W 080°07'0 0.0
2017-Dec-03 10:30N 26°05' W 080°07'0 0.0
2017-Dec-03 10:00N 26°05' W 080°07'0 0.0
2017-Dec-03 09:29N 26°05' W 080°07'0 0.0
2017-Dec-03 09:00N 26°05' W 080°07'0 0.0
2017-Dec-03 08:30N 26°05' W 080°07'0 0.0
2017-Dec-03 08:00N 26°05' W 080°07'0 0.0
2017-Dec-03 07:28N 26°05' W 080°07'0 0.0
2017-Dec-03 07:00N 26°05' W 080°07'0 0.0
2017-Dec-03 06:30N 26°05' W 080°07'0 0.0
2017-Dec-03 06:00N 26°05' W 080°07'0 0.0
2017-Dec-03 05:30N 26°05' W 080°07'0 0.0
2017-Dec-03 05:00N 26°05' W 080°07'0 0.0
2017-Dec-03 04:30N 26°05' W 080°07'0 0.0
2017-Dec-03 04:00N 26°05' W 080°07'0 0.0
2017-Dec-03 03:30N 26°05' W 080°07'0 0.0
2017-Dec-03 03:00N 26°05' W 080°07'0 0.0
2017-Dec-03 02:30N 26°05' W 080°07'0 0.0
2017-Dec-03 02:00N 26°05' W 080°07'0 0.0
2017-Dec-03 01:30N 26°05' W 080°07'0 0.0
2017-Dec-03 01:00N 26°05' W 080°07'0 0.0
2017-Dec-03 00:30N 26°05' W 080°07'0 0.0
2017-Dec-02 23:59N 26°05' W 080°07'0 0.0
2017-Dec-02 23:30N 26°05' W 080°07'0 0.0
2017-Dec-02 23:00N 26°05' W 080°07'0 0.0
2017-Dec-02 22:30N 26°05' W 080°07'0 0.0
2017-Dec-02 22:00N 26°05' W 080°07'0 0.0
2017-Dec-02 21:30N 26°05' W 080°07'0 0.0
2017-Dec-02 20:58N 26°05' W 080°07'0 0.0
2017-Dec-02 20:30N 26°05' W 080°07'0 0.0
2017-Dec-02 20:00N 26°05' W 080°07'0 0.0
2017-Dec-02 19:30N 26°05' W 080°07'0 0.0
2017-Dec-02 19:00N 26°05' W 080°07'0 0.0
2017-Dec-02 18:30N 26°05' W 080°07'0 0.0
2017-Dec-02 18:00N 26°05' W 080°07'0 0.0
2017-Dec-02 17:30N 26°05' W 080°07'0 0.0
2017-Dec-02 17:00N 26°05' W 080°07'0 0.0
2017-Dec-02 16:30N 26°05' W 080°07'0 0.0
2017-Dec-02 16:00N 26°05' W 080°07'0 0.0
2017-Dec-02 15:30N 26°05' W 080°07'0 0.0
2017-Dec-02 15:00N 26°05' W 080°07'0 0.0
2017-Dec-02 14:30N 26°05' W 080°07'0 0.0
2017-Dec-02 14:00N 26°05' W 080°07'0 0.0
2017-Dec-02 13:30N 26°05' W 080°07'0 0.0
2017-Dec-02 13:00N 26°05' W 080°07'0 0.0
2017-Dec-02 12:30N 26°05' W 080°07'0 0.0
2017-Dec-02 12:00N 26°05' W 080°07'0 0.0
2017-Dec-02 11:30N 26°05' W 080°07'0 0.0
2017-Dec-02 11:00N 26°05' W 080°07'0 0.0
2017-Dec-02 10:30N 26°05' W 080°07'0 0.0
2017-Dec-02 10:00N 26°05' W 080°07'0 0.0
2017-Dec-02 09:30N 26°05' W 080°07'0 0.0
2017-Dec-02 09:00N 26°05' W 080°07'0 0.0
2017-Dec-02 08:30N 26°05' W 080°07'0 0.0
2017-Dec-02 08:00N 26°05' W 080°07'0 0.0
2017-Dec-02 07:30N 26°05' W 080°07'0 0.0
2017-Dec-02 07:00N 26°05' W 080°07'0 0.0
2017-Dec-02 06:30N 26°05' W 080°07'0 0.0
2017-Dec-02 06:00N 26°05' W 080°07'0 0.0
2017-Dec-02 05:30N 26°05' W 080°07'0 0.0
2017-Dec-02 05:00N 26°05' W 080°07'0 0.0
2017-Dec-02 04:30N 26°05' W 080°07'0 0.0
2017-Dec-02 04:00N 26°05' W 080°07'0 0.0
2017-Dec-02 03:30N 26°05' W 080°07'0 0.0
2017-Dec-02 03:00N 26°05' W 080°07'0 0.0
2017-Dec-02 02:30N 26°05' W 080°07'0 0.0
2017-Dec-02 02:00N 26°05' W 080°07'0 0.0
2017-Dec-02 01:30N 26°05' W 080°07'0 0.0
2017-Dec-02 01:00N 26°05' W 080°07'0 0.0
2017-Dec-02 00:30N 26°05' W 080°07'0 0.0
2017-Dec-02 00:00N 26°05' W 080°07'0 0.0
2017-Dec-01 23:30N 26°05' W 080°07'0 0.0
2017-Dec-01 23:00N 26°05' W 080°07'0 0.0
2017-Dec-01 22:30N 26°05' W 080°07'0 0.0
2017-Dec-01 22:00N 26°05' W 080°07'0 0.0
2017-Dec-01 21:30N 26°05' W 080°07'0 0.0
2017-Dec-01 21:00N 26°05' W 080°07'0 0.0
2017-Dec-01 20:30N 26°05' W 080°07'0 0.0
2017-Dec-01 20:00N 26°05' W 080°07'0 0.0
2017-Dec-01 19:30N 26°05' W 080°07'0 0.0
2017-Dec-01 19:00N 26°05' W 080°07'0 0.0
2017-Dec-01 18:30N 26°05' W 080°07'0 0.0
2017-Dec-01 18:00N 26°05' W 080°07'0 0.0
2017-Dec-01 17:30N 26°05' W 080°07'0 0.0
2017-Dec-01 17:00N 26°05' W 080°07'0 0.0
2017-Dec-01 16:30N 26°05' W 080°07'0 0.0
2017-Dec-01 16:00N 26°05' W 080°07'0 0.0
2017-Dec-01 15:30N 26°05' W 080°07'0 0.0
2017-Dec-01 15:00N 26°05' W 080°07'0 0.0
2017-Dec-01 14:30N 26°05' W 080°07'0 0.0
2017-Dec-01 14:00N 26°05' W 080°07'0 0.0
2017-Dec-01 13:30N 26°05' W 080°07'0 0.0
2017-Dec-01 13:00N 26°05' W 080°07'0 0.1
2017-Dec-01 12:30N 26°05' W 080°07'0 0.0
2017-Dec-01 12:00N 26°05' W 080°07'0 0.0
2017-Dec-01 11:30N 26°05' W 080°07'0 0.0
2017-Dec-01 11:00N 26°05' W 080°07'0 0.0
2017-Dec-01 10:30N 26°05' W 080°07'0 0.0
2017-Dec-01 10:00N 26°05' W 080°07'0 0.0
2017-Dec-01 09:30N 26°05' W 080°07'0 0.0
2017-Dec-01 09:00N 26°05' W 080°07'0 0.0
2017-Dec-01 08:30N 26°05' W 080°07'0 0.0
2017-Dec-01 08:00N 26°05' W 080°07'0 0.0
2017-Dec-01 07:30N 26°05' W 080°07'0 0.0
2017-Dec-01 06:58N 26°05' W 080°07'0 0.0
2017-Dec-01 06:30N 26°05' W 080°07'0 0.0
2017-Dec-01 06:00N 26°05' W 080°07'0 0.0
2017-Dec-01 05:27N 26°05' W 080°07'0 0.0
2017-Dec-01 05:00N 26°05' W 080°07'0 0.0
2017-Dec-01 04:30N 26°05' W 080°07'0 0.0
2017-Dec-01 04:00N 26°05' W 080°07'0 0.0
2017-Dec-01 03:30N 26°05' W 080°07'0 0.0
2017-Dec-01 02:58N 26°05' W 080°07'0 0.0
2017-Dec-01 02:29N 26°05' W 080°07'0 0.0
2017-Dec-01 02:00N 26°05' W 080°07'0 0.0
2017-Dec-01 01:30N 26°05' W 080°07'0 0.0
2017-Dec-01 00:59N 26°05' W 080°07'0 0.0
2017-Dec-01 00:30N 26°05' W 080°07'0 0.0
2017-Dec-01 00:00N 26°05' W 080°07'0 0.0
2017-Nov-30 23:30N 26°05' W 080°07'0 0.0
2017-Nov-30 23:00N 26°05' W 080°07'0 0.0
2017-Nov-30 22:30N 26°05' W 080°07'0 0.0
2017-Nov-30 22:00N 26°05' W 080°07'0 0.0
2017-Nov-30 21:30N 26°05' W 080°07'0 0.0
2017-Nov-30 20:59N 26°05' W 080°07'0 0.0
2017-Nov-30 20:29N 26°05' W 080°07'0 0.0
2017-Nov-30 20:00N 26°05' W 080°07'0 0.0
2017-Nov-30 19:30N 26°05' W 080°07'0 0.0
2017-Nov-30 19:00N 26°05' W 080°07'0 0.0
2017-Nov-30 18:30N 26°05' W 080°07'0 0.0
2017-Nov-30 18:00N 26°05' W 080°07'0 0.0
2017-Nov-30 17:30N 26°05' W 080°07'0 0.0
2017-Nov-30 17:00N 26°05' W 080°07'0 0.0
2017-Nov-30 16:30N 26°05' W 080°07'0 0.0
2017-Nov-30 16:00N 26°05' W 080°07'0 0.0
2017-Nov-30 15:30N 26°05' W 080°07'0 0.0
2017-Nov-30 15:00N 26°05' W 080°07'0 0.0
2017-Nov-30 14:30N 26°05' W 080°07'0 0.0
2017-Nov-30 14:00N 26°05' W 080°07'0 0.0
2017-Nov-30 13:30N 26°05' W 080°07'0 0.0
2017-Nov-30 13:00N 26°05' W 080°07'0 0.0
2017-Nov-30 12:30N 26°05' W 080°07'0 0.0
2017-Nov-30 12:00N 26°05' W 080°07'0 0.0
2017-Nov-30 11:30N 26°05' W 080°07'0 0.0
2017-Nov-30 11:00N 26°05' W 080°07'0 0.0
2017-Nov-30 10:30N 26°05' W 080°07'0 0.0
2017-Nov-30 10:00N 26°05' W 080°07'0 0.0
2017-Nov-30 09:30N 26°05' W 080°07'0 0.0
2017-Nov-30 09:00N 26°05' W 080°07'0 0.0
2017-Nov-30 08:30N 26°05' W 080°07'0 0.0
2017-Nov-30 08:00N 26°05' W 080°07'0 0.0
2017-Nov-30 07:30N 26°05' W 080°07'0 0.0
2017-Nov-30 07:00N 26°05' W 080°07'0 0.0
2017-Nov-30 06:30N 26°05' W 080°07'0 0.0
2017-Nov-30 06:00N 26°05' W 080°07'0 0.0
2017-Nov-30 05:30N 26°05' W 080°07'0 0.0
2017-Nov-30 05:00N 26°05' W 080°07'0 0.0
2017-Nov-30 04:30N 26°05' W 080°07'0 0.0
2017-Nov-30 04:00N 26°05' W 080°07'0 0.0
2017-Nov-30 03:30N 26°05' W 080°07'0 0.8
2017-Nov-30 03:01N 26°06' W 080°07'2 3.6
2017-Nov-30 02:30N 26°05' W 080°05'1 3.0
2017-Nov-30 02:00N 26°04' W 080°04'2 4.0
2017-Nov-30 01:30N 26°06' W 080°04'3 6.0
2017-Nov-30 01:00N 26°09' W 080°03'4 7.6
2017-Nov-30 00:30N 26°12' W 080°02'4 7.5
2017-Nov-30 00:00N 26°16' W 080°02'4 7.4
2017-Nov-29 23:30N 26°20' W 080°02'4 7.3
2017-Nov-29 23:00N 26°23' W 080°02'4 7.2
2017-Nov-29 22:30N 26°27' W 080°01'4 7.2
2017-Nov-29 22:00N 26°31' W 080°01'4 7.2
2017-Nov-29 21:30N 26°34' W 080°01'3 6.9
2017-Nov-29 21:00N 26°38' W 080°01'3 6.8
2017-Nov-29 20:30N 26°41' W 080°00'3 6.3
2017-Nov-29 20:01N 26°44' W 080°00'4 8.0
2017-Nov-29 19:30N 26°40' W 080°00'4 8.7
2017-Nov-29 19:00N 26°36' W 080°01'4 8.6
2017-Nov-29 18:30N 26°32' W 080°01'4 8.5
2017-Nov-29 18:00N 26°27' W 080°02'4 8.5
2017-Nov-29 17:30N 26°23' W 080°02'4 8.4
2017-Nov-29 16:59N 26°19' W 080°03'4 8.6
2017-Nov-29 16:30N 26°15' W 080°03'5 9.1
2017-Nov-29 15:59N 26°10' W 080°04'4 9.0
2017-Nov-29 15:30N 26°06' W 080°04'  

Dump ship's entire track history